Time;durP1;ratioP1;P1;durP2;ratioP2;P2;SDS_P1;SDS_P2;PMS_P1;PMS_P2;Temp;Humidity;BMP_temperature;BMP_pressure;BME280_temperature;BME280_humidity;BME280_pressure;Samples;Min_cycle;Max_cycle;Signal;HPM_P1;HPM_P2
2022/05/15 00:01:33;;;;;;;14.50;6.27;;;18.50;55.40;;;;;;5031196;28;20218;-88
2022/05/15 00:04:01;;;;;;;17.67;7.50;;;18.50;55.60;;;;;;5033904;28;20227;-89
2022/05/15 00:06:29;;;;;;;19.40;6.77;;;18.50;55.40;;;;;;5032826;28;20235;-89
2022/05/15 00:08:56;;;;;;;19.70;7.20;;;18.50;55.70;;;;;;5034295;28;20207;-89
2022/05/15 00:11:25;;;;;;;20.97;8.43;;;18.40;55.60;;;;;;5030587;28;20209;-89
2022/05/15 00:13:53;;;;;;;19.93;7.83;;;18.50;56.20;;;;;;5028338;28;20802;-89
2022/05/15 00:16:20;;;;;;;18.57;7.87;;;18.40;55.70;;;;;;5026702;28;20207;-92
2022/05/15 00:18:49;;;;;;;20.63;7.30;;;18.40;55.90;;;;;;5029990;28;20211;-89
2022/05/15 00:21:16;;;;;;;18.93;7.27;;;18.40;56.10;;;;;;5025181;28;20235;-88
2022/05/15 00:23:44;;;;;;;19.00;7.93;;;18.40;56.10;;;;;;5029951;28;20210;-90
2022/05/15 00:26:12;;;;;;;24.53;7.97;;;18.30;56.00;;;;;;5020865;28;20328;-90
2022/05/15 00:28:39;;;;;;;19.80;7.83;;;18.30;56.00;;;;;;5010094;28;20188;-88
2022/05/15 00:31:06;;;;;;;21.87;7.43;;;18.30;56.10;;;;;;5021523;28;20938;-89
2022/05/15 00:33:33;;;;;;;16.10;7.17;;;18.20;56.40;;;;;;5029085;28;20245;-89
2022/05/15 00:36:03;;;;;;;17.27;6.83;;;18.20;56.20;;;;;;5027976;28;20745;-89
2022/05/15 00:38:31;;;;;;;17.83;7.40;;;18.20;56.40;;;;;;5029656;28;20639;-90
2022/05/15 00:40:58;;;;;;;24.53;9.53;;;18.20;56.40;;;;;;5025219;28;20715;-89
2022/05/15 00:43:46;;;;;;;16.87;7.37;;;18.20;56.50;;;;;;5023020;28;20200;-88
2022/05/15 00:46:15;;;;;;;16.70;7.00;;;18.10;57.20;;;;;;5025640;28;20317;-89
2022/05/15 00:48:43;;;;;;;30.47;10.50;;;18.10;56.60;;;;;;5028003;28;20817;-89
2022/05/15 00:51:17;;;;;;;31.53;9.47;;;18.10;56.50;;;;;;5028124;28;20214;-89
2022/05/15 00:53:45;;;;;;;33.33;11.63;;;18.00;56.70;;;;;;5027926;28;20203;-89
2022/05/15 00:56:13;;;;;;;21.20;8.17;;;18.00;56.60;;;;;;5009163;28;20208;-89
2022/05/15 00:58:46;;;;;;;19.23;7.70;;;18.00;56.70;;;;;;5025268;28;20239;-91
2022/05/15 01:01:13;;;;;;;18.67;7.37;;;18.00;56.70;;;;;;5030009;28;20294;-90
2022/05/15 01:03:42;;;;;;;22.90;7.57;;;17.90;56.60;;;;;;5026779;28;20210;-88
2022/05/15 01:06:09;;;;;;;18.17;7.40;;;17.90;56.70;;;;;;5029148;28;20277;-90
2022/05/15 01:08:38;;;;;;;19.50;8.00;;;17.90;56.80;;;;;;5028965;28;20215;-88
2022/05/15 01:11:10;;;;;;;18.23;8.03;;;17.80;56.80;;;;;;5029296;28;20207;-91
2022/05/15 01:13:39;;;;;;;17.43;7.07;;;17.80;57.00;;;;;;5027573;28;20217;-89
2022/05/15 01:16:07;;;;;;;18.63;7.63;;;17.70;57.00;;;;;;5026263;28;20759;-87
2022/05/15 01:18:36;;;;;;;18.90;7.27;;;17.80;57.20;;;;;;5027740;28;20261;-89
2022/05/15 01:21:19;;;;;;;23.43;9.57;;;17.70;57.20;;;;;;5024559;28;20259;-90
2022/05/15 01:23:48;;;;;;;15.97;7.43;;;17.70;57.70;;;;;;5029621;28;20214;-89
2022/05/15 01:26:16;;;;;;;20.83;7.60;;;17.70;57.30;;;;;;5027794;28;20226;-90
2022/05/15 01:28:45;;;;;;;19.17;7.07;;;17.60;57.90;;;;;;5020535;28;20219;-89
2022/05/15 01:31:13;;;;;;;28.20;10.33;;;17.50;57.40;;;;;;5025414;28;20690;-89
2022/05/15 01:33:41;;;;;;;18.87;8.23;;;17.50;57.70;;;;;;5023791;28;20229;-88
2022/05/15 01:36:09;;;;;;;21.63;7.03;;;17.50;57.70;;;;;;5027786;28;20210;-89
2022/05/15 01:38:36;;;;;;;21.53;8.70;;;17.40;57.90;;;;;;5025860;28;20252;-91
2022/05/15 01:41:06;;;;;;;15.07;7.90;;;17.40;57.90;;;;;;5029689;28;20195;-93
2022/05/15 01:43:33;;;;;;;22.23;8.37;;;17.30;58.00;;;;;;5027089;28;20201;-90
2022/05/15 01:46:00;;;;;;;18.23;7.47;;;17.30;58.10;;;;;;5024236;28;20222;-91
2022/05/15 01:48:30;;;;;;;18.37;8.33;;;17.30;58.20;;;;;;5028576;28;20209;-88
2022/05/15 01:50:57;;;;;;;18.30;7.43;;;17.30;58.50;;;;;;5025626;28;20204;-92
2022/05/15 01:53:25;;;;;;;20.67;7.67;;;17.20;58.40;;;;;;5029477;28;20685;-89
2022/05/15 01:55:53;;;;;;;22.93;8.97;;;17.20;58.60;;;;;;5026131;28;20201;-90
2022/05/15 01:58:20;;;;;;;19.73;6.67;;;17.20;58.50;;;;;;5028203;28;20301;-91
2022/05/15 02:00:47;;;;;;;13.37;6.27;;;17.20;59.20;;;;;;5028196;28;20270;-90
2022/05/15 02:03:14;;;;;;;20.33;7.90;;;17.10;58.60;;;;;;5032112;28;20689;-89
2022/05/15 02:05:41;;;;;;;17.30;7.77;;;17.10;58.70;;;;;;5032530;28;20251;-90
2022/05/15 02:08:08;;;;;;;24.63;7.57;;;17.10;58.80;;;;;;5030915;28;20214;-90
2022/05/15 02:10:37;;;;;;;18.37;7.37;;;17.10;58.80;;;;;;5029120;28;20281;-88
2022/05/15 02:13:04;;;;;;;28.70;9.50;;;17.10;58.80;;;;;;5029477;28;20667;-89
2022/05/15 02:15:33;;;;;;;18.20;6.60;;;17.10;58.70;;;;;;5031868;28;20306;-89
2022/05/15 02:18:00;;;;;;;20.47;8.73;;;17.00;58.60;;;;;;5028669;28;20203;-89
2022/05/15 02:20:28;;;;;;;21.77;8.43;;;17.00;58.80;;;;;;5029619;28;20322;-89
2022/05/15 02:22:55;;;;;;;15.90;7.33;;;17.00;58.80;;;;;;5030550;28;20214;-89
2022/05/15 02:25:22;;;;;;;17.57;7.70;;;17.00;58.90;;;;;;5029828;28;20255;-89
2022/05/15 02:27:50;;;;;;;19.97;8.30;;;17.00;58.90;;;;;;5027122;28;20287;-90
2022/05/15 02:30:18;;;;;;;17.97;7.27;;;17.00;59.10;;;;;;5032010;28;20633;-89
2022/05/15 02:32:46;;;;;;;18.33;7.30;;;16.90;59.00;;;;;;5030806;28;20281;-89
2022/05/15 02:35:13;;;;;;;18.97;7.60;;;16.90;59.10;;;;;;5031918;28;20205;-88
2022/05/15 02:37:41;;;;;;;20.83;7.67;;;16.80;59.00;;;;;;5028854;28;20214;-89
2022/05/15 02:40:10;;;;;;;15.60;6.87;;;16.80;59.00;;;;;;5032068;28;20240;-90
2022/05/15 02:42:37;;;;;;;33.23;10.93;;;16.80;59.10;;;;;;5028061;28;20291;-89
2022/05/15 02:45:07;;;;;;;18.73;7.73;;;16.70;59.00;;;;;;5032416;28;20699;-88
2022/05/15 02:47:34;;;;;;;20.17;8.63;;;16.70;59.20;;;;;;5025869;28;20272;-89
2022/05/15 02:52:45;;;;;;;17.47;7.47;;;16.70;59.10;;;;;;5028008;28;20683;-89
2022/05/15 02:55:13;;;;;;;16.80;7.13;;;16.60;59.00;;;;;;5032113;28;20201;-92
2022/05/15 02:57:42;;;;;;;20.73;8.47;;;16.60;59.20;;;;;;5027584;28;20207;-90
2022/05/15 03:00:12;;;;;;;14.40;6.90;;;16.60;59.40;;;;;;5031703;28;20629;-88
2022/05/15 03:02:40;;;;;;;19.90;9.27;;;16.60;59.40;;;;;;5032654;28;20204;-89
2022/05/15 03:05:09;;;;;;;18.73;7.90;;;16.60;59.40;;;;;;5038333;28;20241;-88
2022/05/15 03:07:38;;;;;;;25.97;8.50;;;16.50;59.30;;;;;;5032545;28;20962;-88
2022/05/15 03:10:06;;;;;;;20.70;7.60;;;16.50;59.40;;;;;;5034143;28;20220;-89
2022/05/15 03:12:33;;;;;;;19.60;7.60;;;16.50;59.60;;;;;;5026575;28;20669;-88
2022/05/15 03:15:00;;;;;;;20.10;8.03;;;16.40;59.50;;;;;;5031871;28;20209;-88
2022/05/15 03:17:29;;;;;;;29.23;9.87;;;16.30;59.20;;;;;;5029017;28;20352;-89
2022/05/15 03:19:56;;;;;;;18.33;7.23;;;16.30;59.30;;;;;;5031311;28;20940;-87
2022/05/15 03:22:23;;;;;;;20.20;7.73;;;16.30;59.40;;;;;;5027497;28;20251;-89
2022/05/15 03:24:50;;;;;;;16.87;8.33;;;16.30;59.40;;;;;;5030974;28;20205;-87
2022/05/15 03:27:17;;;;;;;19.77;8.03;;;16.30;59.60;;;;;;5028850;28;20330;-88
2022/05/15 03:29:45;;;;;;;23.07;9.10;;;16.30;59.70;;;;;;5036107;28;20214;-88
2022/05/15 03:32:12;;;;;;;17.17;7.40;;;16.20;59.80;;;;;;5034759;28;20646;-87
2022/05/15 03:34:41;;;;;;;34.47;11.33;;;16.20;59.80;;;;;;5031719;28;20262;-87
2022/05/15 03:37:08;;;;;;;20.43;8.13;;;16.20;59.90;;;;;;5029518;28;20292;-87
2022/05/15 03:39:35;;;;;;;26.90;9.47;;;16.20;60.00;;;;;;5033535;28;20197;-87
2022/05/15 03:42:02;;;;;;;20.23;8.37;;;16.20;60.00;;;;;;5032611;28;20230;-87
2022/05/15 03:44:29;;;;;;;18.27;7.70;;;16.10;60.00;;;;;;5036404;28;20193;-89
2022/05/15 03:46:56;;;;;;;19.37;7.80;;;16.10;60.00;;;;;;5033131;28;20719;-89
2022/05/15 03:49:24;;;;;;;17.77;7.50;;;16.10;60.10;;;;;;5031412;28;20577;-88
2022/05/15 03:51:52;;;;;;;18.77;7.60;;;16.00;60.10;;;;;;5025431;28;20259;-87
2022/05/15 03:54:19;;;;;;;22.23;7.43;;;16.00;60.30;;;;;;5028852;28;20212;-88
2022/05/15 03:56:50;;;;;;;17.50;7.67;;;16.00;60.10;;;;;;5029643;28;20263;-88
2022/05/15 03:59:19;;;;;;;18.20;8.03;;;15.90;60.20;;;;;;5033407;28;20315;-89
2022/05/15 04:01:46;;;;;;;20.30;7.97;;;15.90;60.40;;;;;;5030646;28;20235;-91
2022/05/15 04:04:13;;;;;;;14.30;6.73;;;15.90;60.60;;;;;;5030659;28;20201;-91
2022/05/15 04:06:44;;;;;;;19.13;7.40;;;15.80;60.60;;;;;;5027889;28;20235;-88
2022/05/15 04:09:13;;;;;;;16.30;7.70;;;15.80;60.80;;;;;;5027998;28;20232;-88
2022/05/15 04:11:40;;;;;;;20.13;7.83;;;15.80;61.00;;;;;;5028830;28;20641;-89
2022/05/15 04:14:07;;;;;;;18.87;8.13;;;15.80;60.90;;;;;;5027270;28;20217;-89
2022/05/15 04:16:35;;;;;;;21.73;8.23;;;15.80;61.10;;;;;;5030658;28;20219;-88
2022/05/15 04:19:08;;;;;;;20.67;7.73;;;15.70;61.10;;;;;;5025581;28;20197;-88
2022/05/15 04:21:37;;;;;;;20.43;7.60;;;15.70;61.50;;;;;;5029816;28;20962;-89
2022/05/15 04:24:06;;;;;;;20.10;8.50;;;15.70;61.10;;;;;;5027187;28;20205;-89
2022/05/15 04:26:35;;;;;;;19.87;8.40;;;15.70;61.10;;;;;;5026921;28;20232;-88
2022/05/15 04:29:04;;;;;;;16.80;7.47;;;15.70;61.60;;;;;;5029521;28;20242;-88
2022/05/15 04:31:31;;;;;;;23.27;8.93;;;15.70;61.80;;;;;;5025324;28;20678;-89
2022/05/15 04:33:58;;;;;;;15.43;8.03;;;15.70;61.90;;;;;;5028107;28;20224;-88
2022/05/15 04:36:25;;;;;;;21.17;8.30;;;15.70;62.10;;;;;;5027592;28;20212;-89
2022/05/15 04:38:52;;;;;;;17.03;7.90;;;15.70;62.10;;;;;;5028332;28;20283;-88
2022/05/15 04:41:21;;;;;;;21.13;7.87;;;15.70;62.20;;;;;;5029560;28;20218;-87
2022/05/15 04:43:50;;;;;;;21.03;8.83;;;15.70;62.60;;;;;;5011529;28;20195;-89
2022/05/15 04:46:17;;;;;;;18.60;9.00;;;15.70;63.00;;;;;;5028911;28;20211;-87
2022/05/15 04:48:44;;;;;;;19.37;8.40;;;15.70;62.90;;;;;;5025996;28;20735;-88
2022/05/15 04:51:11;;;;;;;27.30;9.50;;;15.70;63.00;;;;;;5029563;28;20201;-87
2022/05/15 04:53:38;;;;;;;28.47;11.00;;;15.70;62.90;;;;;;5024968;28;21031;-88
2022/05/15 04:56:05;;;;;;;26.67;10.27;;;15.80;63.20;;;;;;5018477;28;20204;-89
2022/05/15 04:58:32;;;;;;;25.27;10.43;;;15.80;64.20;;;;;;5027092;28;20229;-88
2022/05/15 05:01:01;;;;;;;25.90;10.20;;;15.80;63.60;;;;;;5026403;28;20207;-86
2022/05/15 05:03:28;;;;;;;33.63;11.80;;;15.90;64.00;;;;;;5026711;28;20207;-91
2022/05/15 05:05:57;;;;;;;31.63;10.87;;;15.90;63.80;;;;;;5016798;28;20315;-88
2022/05/15 05:08:24;;;;;;;24.23;8.97;;;16.00;64.30;;;;;;5025276;28;20214;-88
2022/05/15 05:10:51;;;;;;;27.20;9.03;;;16.10;64.30;;;;;;5023341;28;20651;-88
2022/05/15 05:13:18;;;;;;;27.47;10.67;;;16.10;64.20;;;;;;5023593;28;20318;-88
2022/05/15 05:15:45;;;;;;;25.57;10.47;;;16.20;64.20;;;;;;5017304;28;20206;-87
2022/05/15 05:18:16;;;;;;;18.93;8.47;;;16.20;64.00;;;;;;5027365;28;20317;-87
2022/05/15 05:20:44;;;;;;;19.63;8.63;;;16.30;64.40;;;;;;5019383;28;20765;-88
2022/05/15 05:23:11;;;;;;;23.63;9.77;;;16.40;64.90;;;;;;5028248;28;20208;-89
2022/05/15 05:25:38;;;;;;;23.13;9.33;;;16.50;64.10;;;;;;5028917;28;20204;-88
2022/05/15 05:28:09;;;;;;;26.43;10.57;;;16.50;63.80;;;;;;5020599;28;20375;-89
2022/05/15 05:30:38;;;;;;;20.00;7.97;;;16.60;64.10;;;;;;5026433;28;20253;-89
2022/05/15 05:33:06;;;;;;;22.30;9.47;;;16.70;63.80;;;;;;5019768;28;20221;-88
2022/05/15 05:35:41;;;;;;;30.17;10.70;;;16.80;63.80;;;;;;5026850;28;20279;-92
2022/05/15 05:38:08;;;;;;;23.67;8.77;;;16.90;63.80;;;;;;5019690;28;20236;-89
2022/05/15 05:40:35;;;;;;;32.47;12.17;;;17.00;63.50;;;;;;5025840;28;20235;-88
2022/05/15 05:43:02;;;;;;;22.70;9.33;;;17.00;63.40;;;;;;5019387;28;20198;-88
2022/05/15 05:45:31;;;;;;;29.43;10.90;;;17.10;63.40;;;;;;5020121;28;20294;-88
2022/05/15 05:47:58;;;;;;;17.83;9.00;;;17.20;63.20;;;;;;5024744;28;20259;-88
2022/05/15 05:50:27;;;;;;;27.87;9.93;;;17.30;62.90;;;;;;5026977;28;20287;-88
2022/05/15 05:52:57;;;;;;;26.63;10.63;;;17.40;63.00;;;;;;5024468;28;20293;-88
2022/05/15 05:55:25;;;;;;;20.27;9.13;;;17.40;63.00;;;;;;5018661;28;20203;-87
2022/05/15 05:57:54;;;;;;;17.50;7.97;;;17.50;63.10;;;;;;5019348;28;20240;-87
2022/05/15 06:00:26;;;;;;;33.23;11.63;;;17.60;63.10;;;;;;5019451;28;20211;-88
2022/05/15 06:04:38;;;;;;;25.67;9.93;;;17.70;63.30;;;;;;5023550;28;20235;-87
2022/05/15 06:05:40;;;;;;;19.40;8.93;;;17.70;63.10;;;;;;5026830;28;20208;-88
2022/05/15 06:08:08;;;;;;;18.20;8.63;;;17.90;63.00;;;;;;5026340;28;20242;-88
2022/05/15 06:10:35;;;;;;;20.27;9.67;;;17.90;63.00;;;;;;5027068;28;20310;-88
2022/05/15 06:13:03;;;;;;;24.40;9.53;;;17.90;62.90;;;;;;5027836;28;20706;-90
2022/05/15 06:15:30;;;;;;;20.17;9.00;;;18.00;62.90;;;;;;5026828;28;20306;-88
2022/05/15 06:17:59;;;;;;;18.27;8.60;;;18.10;62.90;;;;;;5028484;28;20295;-89
2022/05/15 06:20:27;;;;;;;17.80;8.00;;;18.20;62.90;;;;;;5026181;28;20653;-88
2022/05/15 06:22:54;;;;;;;17.13;9.03;;;18.20;62.50;;;;;;5029141;28;20294;-92
2022/05/15 06:25:23;;;;;;;15.70;7.57;;;18.30;62.50;;;;;;5027937;28;20203;-93
2022/05/15 06:27:53;;;;;;;25.33;10.30;;;18.40;62.70;;;;;;5028694;28;20294;-92
2022/05/15 06:30:21;;;;;;;32.17;11.00;;;18.40;62.40;;;;;;5025663;28;20200;-93
2022/05/15 06:32:49;;;;;;;21.33;9.10;;;18.50;62.50;;;;;;5028894;28;20219;-93
2022/05/15 06:35:17;;;;;;;17.87;8.57;;;18.60;62.30;;;;;;5025592;28;20614;-91
2022/05/15 06:37:44;;;;;;;19.43;9.20;;;18.70;62.30;;;;;;5029793;28;20624;-95
2022/05/15 06:40:13;;;;;;;17.30;10.13;;;18.70;62.10;;;;;;5034402;28;20235;-90
2022/05/15 06:42:43;;;;;;;21.57;9.07;;;18.80;62.20;;;;;;5051369;28;20599;-89
2022/05/15 06:45:12;;;;;;;19.37;9.17;;;18.80;62.20;;;;;;5035200;28;20241;-89
2022/05/15 06:47:40;;;;;;;19.80;8.87;;;18.90;62.30;;;;;;5039995;28;20232;-92
2022/05/15 06:50:08;;;;;;;17.57;8.57;;;19.00;62.20;;;;;;5033916;28;20197;-90
2022/05/15 06:52:37;;;;;;;19.23;8.27;;;19.10;62.20;;;;;;5034691;28;20299;-93
2022/05/15 06:55:08;;;;;;;20.93;9.30;;;19.20;62.10;;;;;;5033015;28;20193;-93
2022/05/15 06:57:34;;;;;;;20.67;8.93;;;19.30;62.20;;;;;;5014522;28;20705;-90
2022/05/15 07:00:07;;;;;;;20.20;9.27;;;19.40;62.00;;;;;;5028645;28;20295;-93
2022/05/15 07:02:35;;;;;;;15.80;7.73;;;19.50;61.90;;;;;;5032553;28;20304;-88
2022/05/15 07:05:02;;;;;;;18.77;8.50;;;19.50;61.60;;;;;;5036919;28;20204;-88
2022/05/15 07:07:30;;;;;;;17.37;8.20;;;19.60;61.80;;;;;;5044690;28;20220;-87
2022/05/15 07:09:57;;;;;;;14.50;7.97;;;19.70;61.80;;;;;;5039236;28;20212;-87
2022/05/15 07:12:25;;;;;;;18.03;8.80;;;19.80;61.50;;;;;;5031753;28;20212;-90
2022/05/15 07:14:53;;;;;;;19.17;8.80;;;19.90;61.50;;;;;;5029715;28;20204;-88
2022/05/15 07:17:24;;;;;;;13.97;7.90;;;20.00;61.40;;;;;;5031136;28;20307;-88
2022/05/15 07:19:51;;;;;;;14.60;7.90;;;20.10;61.30;;;;;;5031867;28;20987;-88
2022/05/15 07:22:20;;;;;;;16.93;7.73;;;20.30;61.30;;;;;;5030615;28;20282;-90
2022/05/15 07:24:47;;;;;;;12.33;6.50;;;20.40;61.30;;;;;;5031884;28;20291;-88
2022/05/15 07:27:22;;;;;;;14.63;7.57;;;20.50;61.00;;;;;;5029779;28;20285;-89
2022/05/15 07:29:50;;;;;;;20.10;8.10;;;20.60;60.70;;;;;;5026472;28;20264;-92
2022/05/15 07:32:17;;;;;;;13.73;7.37;;;20.70;60.60;;;;;;5031957;28;20258;-90
2022/05/15 07:34:51;;;;;;;17.93;8.23;;;20.80;60.50;;;;;;5031373;28;20200;-92
2022/05/15 07:37:18;;;;;;;13.53;8.03;;;20.90;60.30;;;;;;5031929;28;20246;-88
2022/05/15 07:39:45;;;;;;;12.93;7.07;;;21.00;60.30;;;;;;5032547;28;20205;-92
2022/05/15 07:42:36;;;;;;;18.20;9.17;;;21.10;60.20;;;;;;5030673;28;20205;-89
2022/05/15 07:45:03;;;;;;;19.30;8.50;;;21.20;60.40;;;;;;5027746;28;20815;-87
2022/05/15 07:47:36;;;;;;;14.73;6.73;;;21.30;59.60;;;;;;5031516;28;20329;-90
2022/05/15 07:50:08;;;;;;;15.33;7.33;;;21.40;59.50;;;;;;5031571;28;20301;-88
2022/05/15 07:52:35;;;;;;;15.17;7.30;;;21.60;59.30;;;;;;5031241;28;20970;-88
2022/05/15 07:55:05;;;;;;;17.70;7.87;;;21.60;59.30;;;;;;5031482;28;20237;-91
2022/05/15 07:57:34;;;;;;;13.47;6.53;;;21.70;59.10;;;;;;5031141;28;20237;-87
2022/05/15 08:00:01;;;;;;;13.67;6.43;;;21.80;58.90;;;;;;5029074;28;20356;-90
2022/05/15 08:02:28;;;;;;;15.37;7.93;;;21.90;58.60;;;;;;5028117;28;20295;-88
2022/05/15 08:10:23;;;;;;;11.83;7.17;;;22.30;57.80;;;;;;5028181;28;20669;-88
2022/05/15 08:12:50;;;;;;;13.87;5.47;;;22.40;57.70;;;;;;5030212;28;20223;-87
2022/05/15 08:15:18;;;;;;;10.90;5.10;;;22.50;57.70;;;;;;5029217;28;20211;-88
2022/05/15 08:17:45;;;;;;;13.80;5.70;;;22.60;57.70;;;;;;5030507;28;20207;-88
2022/05/15 08:25:39;;;;;;;10.90;5.07;;;22.90;57.40;;;;;;5016526;28;20204;-87
2022/05/15 08:28:06;;;;;;;16.20;7.37;;;23.10;56.90;;;;;;5030123;28;20227;-87
2022/05/15 08:30:35;;;;;;;8.67;4.80;;;23.20;56.60;;;;;;5030584;28;20208;-91
2022/05/15 08:33:02;;;;;;;12.40;5.60;;;23.30;56.60;;;;;;5030700;28;20966;-89
2022/05/15 08:35:31;;;;;;;11.07;5.17;;;23.40;56.00;;;;;;5030901;28;20260;-90
2022/05/15 08:38:00;;;;;;;12.17;5.50;;;23.50;56.00;;;;;;5029158;28;20208;-91
2022/05/15 08:40:42;;;;;;;8.53;4.60;;;23.70;56.20;;;;;;5033430;28;20251;-87
2022/05/15 08:43:10;;;;;;;11.63;5.60;;;23.80;55.70;;;;;;5032200;28;20193;-89
2022/05/15 08:45:43;;;;;;;9.87;5.07;;;24.00;55.80;;;;;;5028449;28;21007;-90
2022/05/15 08:48:13;;;;;;;19.13;7.83;;;24.20;55.30;;;;;;5023969;28;20300;-88
2022/05/15 08:50:46;;;;;;;6.90;4.57;;;24.40;55.20;;;;;;5027708;28;20201;-91
2022/05/15 08:53:21;;;;;;;13.53;6.00;;;24.60;54.90;;;;;;5028112;28;20224;-87
2022/05/15 08:55:51;;;;;;;13.10;5.87;;;24.90;54.60;;;;;;5027773;28;20224;-88
2022/05/15 08:58:26;;;;;;;11.00;5.33;;;25.10;54.60;;;;;;5026866;28;20227;-89
2022/05/15 09:00:54;;;;;;;16.80;6.77;;;25.40;53.80;;;;;;5026083;28;20200;-88
2022/05/15 09:03:23;;;;;;;11.90;4.30;;;25.60;54.40;;;;;;5026557;28;20201;-88
2022/05/15 09:05:56;;;;;;;12.73;4.93;;;25.90;54.00;;;;;;5024928;28;20201;-89
2022/05/15 09:08:54;;;;;;;10.07;4.63;;;26.10;53.10;;;;;;5024013;28;20252;-88
2022/05/15 09:11:38;;;;;;;10.93;5.13;;;26.50;51.70;;;;;;5018054;28;20205;-88
2022/05/15 09:14:13;;;;;;;13.73;6.50;;;26.70;51.80;;;;;;5025053;28;20216;-89
2022/05/15 09:16:53;;;;;;;17.50;6.83;;;27.00;51.10;;;;;;5021811;28;20288;-88
2022/05/15 09:19:20;;;;;;;12.93;5.30;;;27.20;50.90;;;;;;5025390;28;20716;-93
2022/05/15 09:21:47;;;;;;;13.60;6.23;;;27.50;51.60;;;;;;5022196;28;20302;-88
2022/05/15 09:24:36;;;;;;;16.00;6.40;;;27.60;51.10;;;;;;5023848;28;20224;-88
2022/05/15 09:27:15;;;;;;;12.00;5.93;;;27.80;49.50;;;;;;5024681;28;20233;-85
2022/05/15 09:29:42;;;;;;;13.93;6.50;;;28.10;49.50;;;;;;5023583;28;20802;-88
2022/05/15 09:32:38;;;;;;;14.87;6.13;;;28.30;50.10;;;;;;5025831;28;20685;-89
2022/05/15 09:35:17;;;;;;;8.77;4.43;;;28.50;48.00;;;;;;5025989;28;20220;-89
2022/05/15 09:43:30;;;;;;;10.27;4.83;;;28.90;48.90;;;;;;4982359;28;20685;-90
2022/05/15 09:43:35;;;;;;;8.50;4.40;;;29.10;47.80;;;;;;4982623;28;20203;-90
2022/05/15 09:46:12;;;;;;;7.07;4.10;;;29.30;47.20;;;;;;4992767;28;20198;-89
2022/05/15 09:48:49;;;;;;;11.47;3.93;;;29.40;45.90;;;;;;5008919;28;20308;-88
2022/05/15 09:51:27;;;;;;;9.10;4.37;;;29.50;46.10;;;;;;5008648;28;20309;-89
2022/05/15 09:53:57;;;;;;;7.37;3.47;;;29.60;44.80;;;;;;5008837;28;20259;-89
2022/05/15 09:56:30;;;;;;;10.47;5.13;;;29.70;45.30;;;;;;5016099;28;20235;-90
2022/05/15 09:59:00;;;;;;;6.30;3.70;;;29.80;45.10;;;;;;5028607;28;20240;-88
2022/05/15 10:01:35;;;;;;;8.03;4.00;;;29.90;45.20;;;;;;5026650;28;20330;-87
2022/05/15 10:04:05;;;;;;;9.00;4.13;;;30.00;43.80;;;;;;5028255;28;20208;-90
2022/05/15 10:06:36;;;;;;;8.40;4.47;;;30.00;43.70;;;;;;5027926;28;20300;-90
2022/05/15 10:09:13;;;;;;;7.65;3.92;;;30.10;44.00;;;;;;5028511;28;20232;-90
2022/05/15 10:11:46;;;;;;;9.68;4.07;;;30.20;43.20;;;;;;5026208;28;20232;-89
2022/05/15 10:14:25;;;;;;;10.35;4.07;;;30.20;43.30;;;;;;5046282;28;20201;-89
2022/05/15 10:16:55;;;;;;;9.20;4.80;;;30.30;42.90;;;;;;5045950;28;20219;-88
2022/05/15 10:19:34;;;;;;;9.02;3.60;;;30.40;43.60;;;;;;5030489;28;20316;-88
2022/05/15 10:22:25;;;;;;;6.80;3.70;;;30.50;41.60;;;;;;5028893;28;20213;-86
2022/05/15 10:24:53;;;;;;;5.68;3.47;;;30.60;42.30;;;;;;5032890;28;20197;-89
2022/05/15 10:27:26;;;;;;;9.38;3.40;;;30.70;43.10;;;;;;5032012;28;20211;-89
2022/05/15 10:29:59;;;;;;;6.97;3.60;;;30.70;41.60;;;;;;5032536;28;20677;-88
2022/05/15 10:32:34;;;;;;;8.68;4.43;;;30.80;41.00;;;;;;5032016;28;20251;-89
2022/05/15 10:35:01;;;;;;;5.47;3.55;;;30.90;41.10;;;;;;5031985;28;20196;-88
2022/05/15 10:37:51;;;;;;;8.48;3.60;;;31.00;42.00;;;;;;5030590;28;20209;-87
2022/05/15 10:40:25;;;;;;;6.05;3.80;;;31.10;41.20;;;;;;5042832;28;20222;-88
2022/05/15 10:43:05;;;;;;;8.13;3.03;;;31.10;41.20;;;;;;5047567;28;20236;-88
2022/05/15 10:45:37;;;;;;;7.25;3.10;;;31.20;40.70;;;;;;5034779;28;20639;-88
2022/05/15 10:48:32;;;;;;;8.40;3.65;;;31.30;40.60;;;;;;5036570;28;20267;-89
2022/05/15 10:51:05;;;;;;;5.55;3.33;;;31.40;39.50;;;;;;5032238;28;20292;-88
2022/05/15 10:59:46;;;;;;;10.70;3.75;;;31.80;39.20;;;;;;5031816;28;20212;-89
2022/05/15 11:02:39;;;;;;;6.40;3.00;;;31.80;39.20;;;;;;5032486;28;20208;-88
2022/05/15 11:05:13;;;;;;;12.57;4.95;;;31.90;38.50;;;;;;5030834;28;20291;-91
2022/05/15 11:07:50;;;;;;;6.65;3.58;;;32.00;39.20;;;;;;5025199;28;20196;-88
2022/05/15 11:10:24;;;;;;;5.93;3.33;;;32.10;38.30;;;;;;5031696;28;20242;-87
2022/05/15 11:13:02;;;;;;;8.70;3.42;;;32.20;38.70;;;;;;5031412;28;20244;-88
2022/05/15 11:15:39;;;;;;;5.10;3.05;;;32.30;37.10;;;;;;5029055;28;20208;-88
2022/05/15 11:18:26;;;;;;;6.43;3.38;;;32.30;37.00;;;;;;5030985;28;20691;-89
2022/05/15 11:21:01;;;;;;;7.13;3.53;;;32.40;37.50;;;;;;5030083;28;20829;-88
2022/05/15 11:23:36;;;;;;;8.82;4.43;;;32.50;37.30;;;;;;5011343;28;20731;-90
2022/05/15 11:26:09;;;;;;;9.57;3.28;;;32.50;37.30;;;;;;5011320;28;20197;-88
2022/05/15 11:28:43;;;;;;;14.95;5.80;;;32.60;37.50;;;;;;5020889;28;20217;-89
2022/05/15 11:31:16;;;;;;;4.50;2.50;;;32.70;36.60;;;;;;5011385;28;20233;-87
2022/05/15 11:33:52;;;;;;;6.45;3.08;;;32.70;36.60;;;;;;5009666;28;20350;-89
2022/05/15 11:36:35;;;;;;;5.90;3.40;;;32.80;36.00;;;;;;5011351;28;20208;-87
2022/05/15 11:39:24;;;;;;;5.25;2.53;;;33.00;35.90;;;;;;5011830;28;20805;-88
2022/05/15 11:42:17;;;;;;;4.00;2.70;;;33.00;36.40;;;;;;5029220;28;20212;-88
2022/05/15 11:44:46;;;;;;;6.15;3.10;;;33.10;35.40;;;;;;5031535;28;20204;-92
2022/05/15 11:47:39;;;;;;;7.53;3.03;;;33.10;37.30;;;;;;5031717;28;20651;-88
2022/05/15 11:50:15;;;;;;;6.93;3.05;;;33.20;35.40;;;;;;5032042;28;20232;-90
2022/05/15 11:52:59;;;;;;;6.32;3.00;;;33.30;35.70;;;;;;5032310;28;20287;-90
2022/05/15 11:55:43;;;;;;;9.07;3.53;;;33.40;35.30;;;;;;5030493;28;20197;-88
2022/05/15 11:58:34;;;;;;;6.22;3.50;;;33.40;35.20;;;;;;5031435;28;20329;-88
2022/05/15 12:01:12;;;;;;;5.82;2.47;;;33.50;34.20;;;;;;5031830;28;20226;-88
2022/05/15 12:03:53;;;;;;;7.45;3.83;;;33.50;34.70;;;;;;5031108;28;20213;-88
2022/05/15 12:06:25;;;;;;;8.55;3.53;;;33.50;34.30;;;;;;5030724;28;20583;-89
2022/05/15 12:09:08;;;;;;;7.35;2.75;;;33.60;34.60;;;;;;5029287;28;20314;-87
2022/05/15 12:11:36;;;;;;;8.40;4.10;;;33.60;34.40;;;;;;5029106;28;20204;-89
2022/05/15 12:14:34;;;;;;;5.55;3.10;;;33.70;34.60;;;;;;5030584;28;20215;-87
2022/05/15 12:17:04;;;;;;;6.20;3.05;;;33.80;33.60;;;;;;5029982;28;20205;-88
2022/05/15 12:19:36;;;;;;;7.20;3.38;;;33.90;33.10;;;;;;5021958;28;20288;-89
2022/05/15 12:22:06;;;;;;;5.50;2.92;;;33.90;33.10;;;;;;5011462;28;20253;-88
2022/05/15 12:24:37;;;;;;;8.05;3.50;;;34.00;32.70;;;;;;5015653;28;20611;-88
2022/05/15 12:27:12;;;;;;;7.10;3.20;;;34.00;32.60;;;;;;5030724;28;20287;-88
2022/05/15 12:30:03;;;;;;;7.38;3.72;;;34.10;32.40;;;;;;5029636;28;20775;-89
2022/05/15 12:32:38;;;;;;;7.20;3.53;;;34.10;32.50;;;;;;5030365;28;20255;-89
2022/05/15 12:35:14;;;;;;;4.63;2.75;;;34.20;31.60;;;;;;5029761;28;20196;-88
2022/05/15 12:38:04;;;;;;;7.00;3.67;;;34.20;32.60;;;;;;5031509;28;20208;-90
2022/05/15 12:40:35;;;;;;;7.38;3.05;;;34.30;32.00;;;;;;5030685;28;20658;-88
2022/05/15 12:43:03;;;;;;;5.47;2.75;;;34.40;33.10;;;;;;5031182;28;20320;-90
2022/05/15 12:45:34;;;;;;;5.18;3.20;;;34.50;33.40;;;;;;5030501;28;20209;-90
2022/05/15 12:48:06;;;;;;;5.55;3.10;;;34.60;32.80;;;;;;5030628;28;20679;-91
2022/05/15 12:50:48;;;;;;;7.55;3.65;;;34.60;32.80;;;;;;5030091;28;20232;-89
2022/05/15 12:53:20;;;;;;;6.70;3.50;;;34.70;32.30;;;;;;5031132;28;20212;-88
2022/05/15 12:55:47;;;;;;;5.78;3.20;;;34.80;31.80;;;;;;5031396;28;20208;-91
2022/05/15 12:58:28;;;;;;;9.75;3.95;;;34.90;32.50;;;;;;5034313;28;20629;-92
2022/05/15 13:00:57;;;;;;;4.00;2.58;;;34.90;31.80;;;;;;5033706;28;20192;-93
2022/05/15 13:03:26;;;;;;;8.23;3.35;;;34.90;32.00;;;;;;5031772;28;20580;-90
2022/05/15 13:05:59;;;;;;;5.80;2.92;;;34.90;31.30;;;;;;5033609;28;20274;-92
2022/05/15 13:08:27;;;;;;;7.18;3.33;;;35.00;31.50;;;;;;5034981;28;20231;-92
2022/05/15 13:10:56;;;;;;;3.53;2.28;;;35.00;31.80;;;;;;5033591;28;20325;-88
2022/05/15 13:13:27;;;;;;;5.05;2.85;;;35.10;32.00;;;;;;5031257;28;20209;-90
2022/05/15 13:15:56;;;;;;;4.82;2.63;;;35.10;32.00;;;;;;5029994;28;20685;-89
2022/05/15 13:18:26;;;;;;;9.40;4.18;;;35.20;32.10;;;;;;5027764;28;20941;-89
2022/05/15 13:21:01;;;;;;;4.80;3.15;;;35.30;31.60;;;;;;5028176;28;20297;-88